Time;durP1;ratioP1;P1;durP2;ratioP2;P2;SDS_P1;SDS_P2;PMS_P1;PMS_P2;Temp;Humidity;BMP_temperature;BMP_pressure;BME280_temperature;BME280_humidity;BME280_pressure;Samples;Min_cycle;Max_cycle;Signal;HPM_P1;HPM_P2
2023/01/04 00:00:20;;;;;;;;;;;17.20;51.00;;;;;;5071098;28;19982;-53
2023/01/04 00:02:45;;;;;;;;;;;17.20;51.00;;;;;;5071386;28;19916;-53
2023/01/04 00:05:11;;;;;;;;;;;17.20;51.70;;;;;;5071376;28;19916;-53
2023/01/04 00:07:36;;;;;;;;;;;17.20;51.00;;;;;;5071497;28;19917;-53
2023/01/04 00:10:02;;;;;;;;;;;17.20;51.00;;;;;;5070257;28;19958;-52
2023/01/04 00:12:27;;;;;;;;;;;17.10;50.90;;;;;;5070017;28;19920;-53
2023/01/04 00:14:53;;;;;;;;;;;17.10;50.90;;;;;;5070575;28;20045;-53
2023/01/04 00:17:18;;;;;;;;;;;17.10;51.00;;;;;;5071006;28;20040;-53
2023/01/04 00:19:43;;;;;;;;;;;17.10;50.90;;;;;;5068999;28;19921;-53
2023/01/04 00:22:09;;;;;;;;;;;17.10;50.90;;;;;;5052836;28;19928;-53
2023/01/04 00:24:34;;;;;;;;;;;17.10;50.90;;;;;;5069389;28;19919;-53
2023/01/04 00:27:00;;;;;;;;;;;17.10;50.90;;;;;;5071395;28;19963;-53
2023/01/04 00:29:25;;;;;;;;;;;17.10;50.90;;;;;;5070565;28;20299;-53
2023/01/04 00:31:50;;;;;;;;;;;17.00;50.90;;;;;;5070931;28;20386;-53
2023/01/04 00:34:16;;;;;;;;;;;17.00;50.90;;;;;;5076842;28;19916;-53
2023/01/04 00:36:42;;;;;;;;;;;17.00;50.90;;;;;;5073998;28;19999;-53
2023/01/04 00:39:13;;;;;;;;;;;17.00;51.00;;;;;;5070953;28;19912;-53
2023/01/04 00:41:39;;;;;;;;;;;16.90;51.00;;;;;;5070948;28;19999;-53
2023/01/04 00:44:05;;;;;;;;;;;17.00;51.10;;;;;;5070350;28;20285;-53
2023/01/04 00:46:30;;;;;;;;;;;16.90;51.00;;;;;;5068708;28;19935;-52
2023/01/04 00:48:56;;;;;;;;;;;16.90;51.10;;;;;;5076442;28;19963;-53
2023/01/04 00:51:21;;;;;;;;;;;16.90;51.10;;;;;;5070663;28;19912;-53
2023/01/04 00:53:46;;;;;;;;;;;16.90;51.00;;;;;;5072852;28;19923;-53
2023/01/04 00:56:12;;;;;;;;;;;16.90;51.00;;;;;;5073945;28;19964;-53
2023/01/04 00:58:37;;;;;;;;;;;16.80;50.90;;;;;;5074046;28;19916;-53
2023/01/04 01:01:06;;;;;;;;;;;16.80;51.00;;;;;;5072793;28;19913;-53
2023/01/04 01:03:32;;;;;;;;;;;16.80;51.00;;;;;;5072216;28;20023;-53
2023/01/04 01:06:03;;;;;;;;;;;16.80;50.90;;;;;;5074228;28;19990;-53
2023/01/04 01:08:29;;;;;;;;;;;16.70;51.00;;;;;;5074272;28;19916;-53
2023/01/04 01:10:54;;;;;;;;;;;16.70;50.90;;;;;;5073741;28;20020;-53
2023/01/04 01:13:20;;;;;;;;;;;16.70;50.90;;;;;;5072853;28;19913;-53
2023/01/04 01:15:46;;;;;;;;;;;16.70;50.90;;;;;;5072977;28;19923;-53
2023/01/04 01:18:11;;;;;;;;;;;16.70;50.90;;;;;;5073954;28;19921;-53
2023/01/04 01:20:43;;;;;;;;;;;16.70;51.00;;;;;;5078729;28;20267;-53
2023/01/04 01:23:10;;;;;;;;;;;16.70;50.90;;;;;;5094814;28;20381;-53
2023/01/04 01:25:36;;;;;;;;;;;16.60;51.10;;;;;;5081587;28;19908;-53
2023/01/04 01:28:01;;;;;;;;;;;16.60;50.90;;;;;;5072596;28;20822;-53
2023/01/04 01:30:26;;;;;;;;;;;16.50;50.90;;;;;;5073958;28;19923;-53
2023/01/04 01:32:52;;;;;;;;;;;16.50;50.90;;;;;;5073773;28;19908;-53
2023/01/04 01:35:17;;;;;;;;;;;16.50;50.90;;;;;;5077414;28;19967;-53
2023/01/04 01:37:43;;;;;;;;;;;16.50;50.90;;;;;;5078635;28;19912;-53
2023/01/04 01:40:08;;;;;;;;;;;16.50;51.00;;;;;;5082111;28;19920;-53
2023/01/04 01:42:34;;;;;;;;;;;16.50;51.00;;;;;;5073264;28;19913;-53
2023/01/04 01:45:00;;;;;;;;;;;16.40;51.00;;;;;;5070917;28;19915;-53
2023/01/04 01:47:27;;;;;;;;;;;16.40;50.90;;;;;;5073231;28;19920;-52
2023/01/04 01:49:52;;;;;;;;;;;16.50;51.00;;;;;;5072850;28;19908;-52
2023/01/04 01:52:22;;;;;;;;;;;16.50;50.90;;;;;;5072383;28;19917;-51
2023/01/04 01:54:48;;;;;;;;;;;16.40;50.90;;;;;;5072904;28;19960;-52
2023/01/04 01:57:15;;;;;;;;;;;16.40;50.90;;;;;;5073079;28;19956;-52
2023/01/04 01:59:41;;;;;;;;;;;16.40;50.80;;;;;;5072669;28;19920;-52
2023/01/04 02:02:06;;;;;;;;;;;16.30;50.80;;;;;;5073451;28;20283;-53
2023/01/04 02:04:32;;;;;;;;;;;16.30;50.90;;;;;;5072408;28;19920;-52
2023/01/04 02:06:57;;;;;;;;;;;16.30;51.00;;;;;;5072540;28;19917;-54
2023/01/04 02:09:23;;;;;;;;;;;16.30;50.70;;;;;;5072314;28;19927;-52
2023/01/04 02:11:48;;;;;;;;;;;16.40;50.60;;;;;;5072913;28;20002;-52
2023/01/04 02:14:25;;;;;;;;;;;16.50;50.50;;;;;;5072264;28;19925;-52
2023/01/04 02:16:55;;;;;;;;;;;16.50;50.30;;;;;;5072855;28;20257;-52
2023/01/04 02:19:46;;;;;;;;;;;16.70;50.10;;;;;;5071640;28;19912;-52
2023/01/04 02:22:31;;;;;;;;;;;17.00;49.60;;;;;;5074616;28;19931;-52
2023/01/04 02:25:04;;;;;;;;;;;17.30;48.80;;;;;;5076002;28;19920;-52
2023/01/04 02:27:35;;;;;;;;;;;17.70;48.10;;;;;;5061394;28;20035;-52
2023/01/04 02:30:05;;;;;;;;;;;18.10;47.40;;;;;;5102601;28;19923;-52
2023/01/04 02:32:52;;;;;;;;;;;18.50;46.60;;;;;;5105484;28;20280;-52
2023/01/04 02:35:24;;;;;;;;;;;18.90;45.90;;;;;;5105354;28;19965;-52
2023/01/04 02:37:51;;;;;;;;;;;19.10;45.20;;;;;;5103597;28;19932;-52
2023/01/04 02:40:22;;;;;;;;;;;19.20;45.10;;;;;;5070311;28;19923;-52
2023/01/04 02:45:41;;;;;;;;;;;19.20;45.00;;;;;;5067855;28;19965;-52
2023/01/04 02:50:57;;;;;;;;;;;19.10;45.40;;;;;;5065370;28;20388;-53
2023/01/04 02:53:25;;;;;;;;;;;18.90;45.50;;;;;;5071463;28;20356;-52
2023/01/04 02:56:01;;;;;;;;;;;18.80;45.90;;;;;;5072246;28;19909;-52
2023/01/04 02:58:45;;;;;;;;;;;18.60;46.10;;;;;;5071927;28;19913;-52
2023/01/04 03:07:07;;;;;;;;;;;18.10;47.10;;;;;;5058978;28;19923;-52
2023/01/04 03:09:33;;;;;;;;;;;18.00;47.30;;;;;;5055654;28;19916;-52
2023/01/04 03:14:49;;;;;;;;;;;17.90;47.70;;;;;;5072267;28;20078;-52
2023/01/04 03:17:15;;;;;;;;;;;17.80;47.90;;;;;;5079071;28;19916;-52
2023/01/04 03:19:55;;;;;;;;;;;17.70;48.00;;;;;;5067807;28;20003;-53
2023/01/04 03:36:19;;;;;;;;;;;17.30;48.80;;;;;;5069891;28;19919;-52
2023/01/04 03:50:27;;;;;;;;;;;17.10;48.80;;;;;;5069005;28;19923;-54
2023/01/04 03:52:52;;;;;;;;;;;17.10;48.80;;;;;;5071553;28;19909;-53
2023/01/04 03:55:18;;;;;;;;;;;17.10;48.80;;;;;;5103094;28;20014;-53
2023/01/04 03:57:43;;;;;;;;;;;17.00;48.90;;;;;;5071008;28;19912;-54
2023/01/04 04:00:10;;;;;;;;;;;17.10;49.10;;;;;;5071421;28;20360;-53
2023/01/04 04:02:35;;;;;;;;;;;17.10;49.00;;;;;;5071808;28;19915;-53
2023/01/04 04:10:29;;;;;;;;;;;17.20;48.90;;;;;;5069499;28;19962;-53
2023/01/04 04:12:55;;;;;;;;;;;17.20;48.80;;;;;;5070502;28;19951;-53
2023/01/04 04:15:20;;;;;;;;;;;17.30;48.60;;;;;;5071692;28;19916;-53
2023/01/04 04:17:46;;;;;;;;;;;17.30;48.50;;;;;;5064842;28;19917;-54
2023/01/04 04:20:14;;;;;;;;;;;17.40;48.40;;;;;;5059676;28;20291;-52
2023/01/04 04:22:40;;;;;;;;;;;17.50;48.20;;;;;;5071198;28;19946;-52
2023/01/04 04:25:05;;;;;;;;;;;17.50;47.90;;;;;;5069859;28;19912;-52
2023/01/04 04:27:31;;;;;;;;;;;17.60;47.90;;;;;;5071951;28;19999;-52
2023/01/04 04:29:56;;;;;;;;;;;17.60;47.80;;;;;;5074384;28;19913;-54
2023/01/04 04:32:22;;;;;;;;;;;17.60;47.80;;;;;;5072771;28;20265;-54
2023/01/04 04:34:47;;;;;;;;;;;17.60;47.70;;;;;;5074256;28;19913;-53
2023/01/04 04:37:12;;;;;;;;;;;17.50;47.80;;;;;;5074170;28;19912;-52
2023/01/04 04:39:38;;;;;;;;;;;17.50;47.90;;;;;;5073800;28;19912;-52
2023/01/04 04:42:03;;;;;;;;;;;17.50;48.00;;;;;;5073255;28;19943;-52
2023/01/04 04:44:29;;;;;;;;;;;17.40;48.00;;;;;;5074080;28;20311;-52
2023/01/04 04:46:54;;;;;;;;;;;17.40;48.10;;;;;;5074348;28;19971;-53
2023/01/04 04:49:19;;;;;;;;;;;17.40;48.20;;;;;;5073950;28;20336;-53
2023/01/04 04:51:45;;;;;;;;;;;17.30;48.20;;;;;;5074283;28;20375;-53
2023/01/04 04:54:11;;;;;;;;;;;17.30;48.40;;;;;;5073993;28;19913;-54
2023/01/04 04:56:37;;;;;;;;;;;17.20;48.40;;;;;;5106831;28;20424;-53
2023/01/04 04:59:03;;;;;;;;;;;17.20;48.60;;;;;;5073928;28;20015;-54
2023/01/04 05:01:29;;;;;;;;;;;17.20;48.60;;;;;;5073998;28;19921;-53
2023/01/04 05:03:55;;;;;;;;;;;17.20;48.60;;;;;;5057095;28;19917;-53
2023/01/04 05:06:20;;;;;;;;;;;17.20;48.70;;;;;;5073924;28;19919;-53
2023/01/04 05:08:45;;;;;;;;;;;17.20;48.80;;;;;;5074419;28;19923;-53
2023/01/04 05:11:11;;;;;;;;;;;17.20;48.60;;;;;;5072532;28;19955;-53
2023/01/04 05:13:36;;;;;;;;;;;17.20;48.60;;;;;;5072627;28;19916;-53
2023/01/04 05:16:02;;;;;;;;;;;17.20;48.70;;;;;;5066100;28;19913;-53
2023/01/04 05:18:27;;;;;;;;;;;17.20;48.70;;;;;;5073728;28;19917;-53
2023/01/04 05:20:53;;;;;;;;;;;17.10;48.70;;;;;;5067599;28;19912;-53
2023/01/04 05:23:19;;;;;;;;;;;17.10;48.70;;;;;;5073623;28;19925;-53
2023/01/04 05:25:44;;;;;;;;;;;17.20;48.70;;;;;;5072929;28;19916;-53
2023/01/04 05:28:10;;;;;;;;;;;17.20;48.60;;;;;;5072873;28;19917;-53
2023/01/04 05:30:50;;;;;;;;;;;17.20;48.70;;;;;;5073931;28;19923;-53
2023/01/04 05:33:19;;;;;;;;;;;17.20;48.70;;;;;;5073952;28;19912;-53
2023/01/04 05:35:45;;;;;;;;;;;17.20;48.60;;;;;;5072977;28;19923;-53
2023/01/04 05:38:10;;;;;;;;;;;17.20;48.70;;;;;;5073331;28;19912;-53
2023/01/04 05:40:36;;;;;;;;;;;17.20;48.60;;;;;;5072357;28;19912;-53
2023/01/04 05:43:01;;;;;;;;;;;17.20;48.70;;;;;;5069118;28;20376;-52
2023/01/04 05:45:27;;;;;;;;;;;17.20;48.70;;;;;;5073360;28;19916;-53
2023/01/04 05:47:52;;;;;;;;;;;17.20;48.80;;;;;;5073946;28;20356;-53
2023/01/04 05:50:21;;;;;;;;;;;17.20;48.80;;;;;;5072456;28;19912;-53
2023/01/04 05:52:46;;;;;;;;;;;17.10;48.80;;;;;;5066861;28;19916;-53
2023/01/04 05:55:12;;;;;;;;;;;17.20;48.90;;;;;;5072077;28;19927;-53
2023/01/04 05:57:37;;;;;;;;;;;17.20;48.90;;;;;;5057795;28;19916;-53
2023/01/04 06:00:03;;;;;;;;;;;17.20;48.90;;;;;;5060550;28;19919;-53
2023/01/04 06:02:29;;;;;;;;;;;17.10;48.80;;;;;;5077556;28;20384;-52
2023/01/04 06:04:54;;;;;;;;;;;17.20;48.90;;;;;;5093572;28;19992;-53
2023/01/04 06:07:20;;;;;;;;;;;17.10;48.80;;;;;;5075676;28;19919;-53
2023/01/04 06:09:45;;;;;;;;;;;17.20;49.60;;;;;;5071196;28;19921;-53
2023/01/04 06:12:11;;;;;;;;;;;17.20;48.90;;;;;;5073529;28;19915;-53
2023/01/04 06:14:36;;;;;;;;;;;17.20;48.90;;;;;;5072878;28;19909;-53
2023/01/04 06:17:02;;;;;;;;;;;17.20;48.90;;;;;;5073559;28;20031;-53
2023/01/04 06:19:27;;;;;;;;;;;17.10;49.00;;;;;;5071927;28;19931;-52
2023/01/04 06:21:52;;;;;;;;;;;17.10;49.00;;;;;;5062424;28;19921;-53
2023/01/04 06:24:18;;;;;;;;;;;17.10;49.00;;;;;;5072867;28;20364;-53
2023/01/04 06:26:43;;;;;;;;;;;17.10;49.20;;;;;;5072815;28;19999;-53
2023/01/04 06:29:09;;;;;;;;;;;17.10;49.10;;;;;;5072468;28;19923;-53
2023/01/04 06:31:34;;;;;;;;;;;17.10;49.20;;;;;;5072692;28;19919;-53
2023/01/04 06:34:00;;;;;;;;;;;17.10;49.20;;;;;;5073201;28;20003;-53
2023/01/04 06:36:25;;;;;;;;;;;17.10;49.10;;;;;;5071693;28;19962;-53
2023/01/04 06:38:51;;;;;;;;;;;17.10;49.10;;;;;;5070482;28;19912;-53
2023/01/04 06:41:16;;;;;;;;;;;17.10;49.20;;;;;;5065863;28;19917;-53
2023/01/04 06:43:42;;;;;;;;;;;17.10;49.40;;;;;;5058148;28;19916;-53
2023/01/04 06:46:07;;;;;;;;;;;17.10;49.20;;;;;;5052524;28;19913;-53
2023/01/04 06:48:33;;;;;;;;;;;17.00;49.40;;;;;;5054741;28;19920;-53
2023/01/04 06:50:58;;;;;;;;;;;17.10;49.40;;;;;;5071995;28;19912;-53
2023/01/04 06:53:23;;;;;;;;;;;17.10;49.30;;;;;;5072195;28;20277;-53
2023/01/04 06:55:49;;;;;;;;;;;17.10;49.30;;;;;;5072151;28;20376;-53
2023/01/04 06:58:14;;;;;;;;;;;17.10;49.30;;;;;;5071866;28;19908;-53
2023/01/04 07:00:40;;;;;;;;;;;17.10;49.30;;;;;;5070828;28;20613;-53
2023/01/04 07:03:06;;;;;;;;;;;17.10;49.30;;;;;;5069771;28;20434;-53
2023/01/04 07:05:31;;;;;;;;;;;17.10;49.30;;;;;;5071512;28;19920;-53
2023/01/04 07:08:00;;;;;;;;;;;17.10;49.40;;;;;;5072118;28;20035;-53
2023/01/04 07:10:25;;;;;;;;;;;17.10;49.40;;;;;;5071498;28;19917;-53
2023/01/04 07:12:51;;;;;;;;;;;17.10;49.40;;;;;;5063774;28;19916;-53
2023/01/04 07:15:16;;;;;;;;;;;17.10;49.30;;;;;;5072071;28;19916;-53
2023/01/04 07:17:42;;;;;;;;;;;17.10;49.50;;;;;;5070944;28;19909;-52
2023/01/04 07:20:07;;;;;;;;;;;17.10;49.70;;;;;;5059924;28;20091;-53
2023/01/04 07:22:33;;;;;;;;;;;17.10;49.60;;;;;;5051868;28;20024;-53
2023/01/04 07:24:58;;;;;;;;;;;17.00;49.60;;;;;;5059206;28;19942;-52
2023/01/04 07:27:24;;;;;;;;;;;17.10;49.80;;;;;;5071069;28;19912;-53
2023/01/04 07:29:49;;;;;;;;;;;17.10;49.50;;;;;;5068742;28;20358;-53
2023/01/04 07:32:14;;;;;;;;;;;17.10;49.50;;;;;;5077647;28;20303;-52
2023/01/04 07:34:40;;;;;;;;;;;17.20;49.50;;;;;;5079136;28;19912;-53
2023/01/04 07:37:08;;;;;;;;;;;17.20;49.30;;;;;;5071349;28;19920;-53
2023/01/04 07:39:33;;;;;;;;;;;17.20;49.40;;;;;;5071090;28;19919;-53
2023/01/04 07:41:58;;;;;;;;;;;17.20;49.50;;;;;;5069910;28;19920;-53
2023/01/04 07:44:26;;;;;;;;;;;17.20;49.50;;;;;;5071298;28;19916;-53
2023/01/04 07:46:51;;;;;;;;;;;17.20;49.60;;;;;;5080744;28;19912;-53
2023/01/04 07:49:17;;;;;;;;;;;17.20;49.70;;;;;;5073415;28;19935;-53
2023/01/04 07:51:42;;;;;;;;;;;17.30;49.60;;;;;;5071471;28;19966;-53
2023/01/04 07:54:08;;;;;;;;;;;17.20;49.60;;;;;;5070915;28;19913;-52
2023/01/04 07:56:34;;;;;;;;;;;17.20;49.80;;;;;;5068814;28;19982;-53
2023/01/04 07:58:59;;;;;;;;;;;17.20;49.90;;;;;;5065079;28;20360;-53
2023/01/04 08:01:25;;;;;;;;;;;17.20;50.00;;;;;;5068882;28;19912;-53
2023/01/04 08:03:50;;;;;;;;;;;17.10;50.00;;;;;;5075386;28;20276;-53
2023/01/04 08:06:16;;;;;;;;;;;17.10;50.10;;;;;;5077383;28;20372;-53
2023/01/04 08:08:41;;;;;;;;;;;17.00;50.40;;;;;;5075070;28;19972;-53
2023/01/04 08:11:10;;;;;;;;;;;17.10;50.40;;;;;;5073187;28;20352;-53
2023/01/04 08:13:36;;;;;;;;;;;17.10;50.30;;;;;;5070602;28;19912;-53
2023/01/04 08:16:01;;;;;;;;;;;17.20;50.30;;;;;;5075186;28;20641;-53
2023/01/04 08:18:27;;;;;;;;;;;17.20;50.30;;;;;;5072145;28;19912;-53
2023/01/04 08:21:01;;;;;;;;;;;17.10;50.30;;;;;;5059512;28;19920;-53
2023/01/04 08:23:27;;;;;;;;;;;17.20;50.30;;;;;;5074683;28;19916;-52
2023/01/04 08:25:52;;;;;;;;;;;17.20;50.40;;;;;;5074409;28;19919;-53
2023/01/04 08:28:18;;;;;;;;;;;17.20;50.30;;;;;;5074317;28;19995;-53
2023/01/04 08:30:43;;;;;;;;;;;17.20;50.30;;;;;;5073553;28;19952;-53
2023/01/04 08:33:12;;;;;;;;;;;17.20;50.30;;;;;;5065635;28;19983;-53
2023/01/04 08:35:38;;;;;;;;;;;17.20;50.30;;;;;;5067712;28;20023;-53
2023/01/04 08:38:03;;;;;;;;;;;17.20;50.40;;;;;;5071378;28;20011;-53
2023/01/04 08:40:28;;;;;;;;;;;17.20;50.60;;;;;;5071195;28;20371;-53
2023/01/04 08:42:54;;;;;;;;;;;17.20;50.70;;;;;;5072282;28;20364;-53
2023/01/04 08:45:19;;;;;;;;;;;17.20;51.30;;;;;;5063692;28;19917;-53
2023/01/04 08:47:45;;;;;;;;;;;17.20;50.60;;;;;;5071692;28;20343;-53
2023/01/04 08:50:10;;;;;;;;;;;17.20;50.60;;;;;;5074448;28;20007;-53
2023/01/04 08:52:36;;;;;;;;;;;17.20;50.70;;;;;;5072876;28;20013;-53
2023/01/04 08:55:01;;;;;;;;;;;17.20;50.80;;;;;;5074373;28;19913;-53
2023/01/04 08:57:26;;;;;;;;;;;17.20;50.80;;;;;;5072853;28;20049;-53
2023/01/04 08:59:52;;;;;;;;;;;17.10;50.90;;;;;;5073804;28;19913;-53
2023/01/04 09:02:19;;;;;;;;;;;17.20;51.00;;;;;;5073221;28;20007;-53
2023/01/04 09:04:44;;;;;;;;;;;17.20;50.90;;;;;;5068202;28;19917;-53
2023/01/04 09:07:10;;;;;;;;;;;17.20;50.90;;;;;;5073091;28;20000;-53
2023/01/04 09:09:35;;;;;;;;;;;17.30;50.80;;;;;;5069733;28;20293;-53
2023/01/04 09:12:01;;;;;;;;;;;17.30;50.70;;;;;;5073209;28;19913;-53
2023/01/04 09:14:26;;;;;;;;;;;17.30;50.80;;;;;;5072209;28;19920;-53
2023/01/04 09:16:52;;;;;;;;;;;17.30;50.80;;;;;;5070352;28;19991;-53
2023/01/04 09:19:17;;;;;;;;;;;17.30;50.80;;;;;;5058644;28;20368;-53
2023/01/04 09:21:42;;;;;;;;;;;17.30;50.90;;;;;;5071128;28;19974;-53
2023/01/04 09:24:08;;;;;;;;;;;17.30;50.80;;;;;;5072662;28;20281;-53
2023/01/04 09:26:33;;;;;;;;;;;17.30;50.90;;;;;;5071243;28;20773;-53
2023/01/04 09:28:59;;;;;;;;;;;17.30;50.90;;;;;;5064677;28;20391;-53
2023/01/04 09:31:25;;;;;;;;;;;17.30;51.00;;;;;;5073767;28;20395;-53
2023/01/04 09:33:50;;;;;;;;;;;17.30;51.00;;;;;;5071545;28;19913;-53
2023/01/04 09:36:16;;;;;;;;;;;17.20;51.00;;;;;;5073201;28;19974;-53
2023/01/04 09:38:41;;;;;;;;;;;17.20;51.30;;;;;;5072512;28;19920;-53
2023/01/04 09:41:13;;;;;;;;;;;17.10;51.20;;;;;;5073084;28;20003;-53
2023/01/04 09:43:42;;;;;;;;;;;17.10;51.20;;;;;;5073187;28;20333;-53
2023/01/04 09:46:09;;;;;;;;;;;17.10;51.30;;;;;;5073301;28;19966;-54
2023/01/04 09:48:34;;;;;;;;;;;17.10;51.30;;;;;;5076047;28;20007;-53
2023/01/04 09:51:00;;;;;;;;;;;17.20;51.50;;;;;;5066827;28;19913;-53
2023/01/04 09:53:30;;;;;;;;;;;17.20;51.30;;;;;;5072423;28;19916;-53
2023/01/04 09:56:06;;;;;;;;;;;17.20;51.30;;;;;;5070080;28;19913;-53
2023/01/04 09:58:32;;;;;;;;;;;17.20;51.90;;;;;;5070420;28;19912;-53
2023/01/04 10:00:59;;;;;;;;;;;17.20;51.30;;;;;;5072198;28;19920;-53
2023/01/04 10:03:27;;;;;;;;;;;17.20;51.40;;;;;;5071791;28;19923;-52
2023/01/04 10:05:53;;;;;;;;;;;17.20;51.50;;;;;;5068501;28;20414;-54
2023/01/04 10:08:19;;;;;;;;;;;17.20;51.40;;;;;;5066670;28;19955;-53
2023/01/04 10:10:47;;;;;;;;;;;17.80;50.60;;;;;;5064722;28;19916;-53
2023/01/04 10:13:31;;;;;;;;;;;18.70;49.10;;;;;;5069619;28;20322;-53
2023/01/04 10:16:03;;;;;;;;;;;19.60;47.10;;;;;;5069517;28;20052;-54
2023/01/04 10:18:35;;;;;;;;;;;20.70;45.00;;;;;;5066937;28;19920;-53
2023/01/04 10:21:00;;;;;;;;;;;21.20;43.90;;;;;;5064490;28;20323;-53
2023/01/04 10:23:30;;;;;;;;;;;21.60;43.10;;;;;;5063229;28;19925;-54
2023/01/04 10:25:56;;;;;;;;;;;21.80;42.80;;;;;;5063159;28;19912;-53
2023/01/04 10:28:36;;;;;;;;;;;21.90;42.60;;;;;;5062463;28;19920;-53
2023/01/04 10:31:04;;;;;;;;;;;22.00;42.40;;;;;;5062472;28;19916;-53
2023/01/04 10:33:56;;;;;;;;;;;22.30;42.20;;;;;;5068538;28;22338;-52
2023/01/04 10:36:23;;;;;;;;;;;22.30;41.90;;;;;;5056211;28;19960;-51
2023/01/04 10:38:57;;;;;;;;;;;22.50;41.90;;;;;;5070842;28;20007;-52
2023/01/04 10:41:25;;;;;;;;;;;22.70;41.60;;;;;;5071961;28;19912;-52
2023/01/04 10:44:02;;;;;;;;;;;22.70;41.50;;;;;;5068757;28;19978;-53
2023/01/04 10:46:28;;;;;;;;;;;22.90;41.40;;;;;;5067861;28;19913;-52
2023/01/04 10:48:56;;;;;;;;;;;23.00;41.40;;;;;;5075514;28;19924;-52
2023/01/04 10:51:26;;;;;;;;;;;23.00;41.20;;;;;;5064794;28;19947;-53
2023/01/04 10:53:58;;;;;;;;;;;23.10;41.20;;;;;;5068825;28;19917;-54
2023/01/04 10:56:28;;;;;;;;;;;23.10;41.10;;;;;;5063571;28;19913;-53
2023/01/04 10:59:13;;;;;;;;;;;23.20;41.20;;;;;;5069263;28;19999;-53
2023/01/04 11:01:45;;;;;;;;;;;23.20;41.20;;;;;;5064940;28;19912;-54
2023/01/04 11:04:11;;;;;;;;;;;23.30;41.30;;;;;;5066184;28;19974;-52
2023/01/04 11:07:06;;;;;;;;;;;23.30;41.30;;;;;;5072065;28;19947;-53
2023/01/04 11:09:39;;;;;;;;;;;23.30;41.20;;;;;;5047899;28;19917;-52
2023/01/04 11:12:04;;;;;;;;;;;23.40;41.20;;;;;;5059407;28;20000;-52
2023/01/04 11:14:30;;;;;;;;;;;23.40;41.10;;;;;;5069657;28;20003;-54
2023/01/04 11:16:56;;;;;;;;;;;23.50;41.10;;;;;;5071329;28;19920;-52
2023/01/04 11:19:21;;;;;;;;;;;23.50;41.00;;;;;;5071292;28;19908;-52
2023/01/04 11:21:53;;;;;;;;;;;23.50;41.10;;;;;;5071374;28;19920;-52
2023/01/04 11:24:19;;;;;;;;;;;23.60;41.10;;;;;;5069171;28;19920;-53
2023/01/04 11:26:45;;;;;;;;;;;23.60;41.10;;;;;;5070017;28;20393;-52
2023/01/04 11:29:29;;;;;;;;;;;23.60;41.00;;;;;;5060699;28;19920;-52
2023/01/04 11:31:56;;;;;;;;;;;23.60;41.00;;;;;;5060893;28;19928;-53
2023/01/04 11:34:40;;;;;;;;;;;23.60;41.20;;;;;;5066548;28;19920;-53
2023/01/04 11:37:09;;;;;;;;;;;23.60;41.30;;;;;;5060860;28;19919;-52
2023/01/04 11:39:36;;;;;;;;;;;23.70;41.30;;;;;;5066236;28;19948;-53
2023/01/04 11:42:03;;;;;;;;;;;23.70;41.20;;;;;;5069261;28;19942;-53
2023/01/04 11:44:29;;;;;;;;;;;23.80;41.20;;;;;;5061842;28;20387;-53
2023/01/04 11:47:18;;;;;;;;;;;23.80;41.10;;;;;;5067268;28;19946;-52
2023/01/04 11:49:43;;;;;;;;;;;23.90;41.10;;;;;;5068072;28;20475;-52
2023/01/04 11:52:28;;;;;;;;;;;24.00;41.10;;;;;;5073376;28;19963;-52
2023/01/04 11:54:54;;;;;;;;;;;24.00;41.00;;;;;;5061920;28;20652;-54
2023/01/04 11:57:19;;;;;;;;;;;24.00;40.90;;;;;;5061356;28;19935;-53
2023/01/04 11:59:45;;;;;;;;;;;24.00;41.00;;;;;;5064178;28;19916;-54
2023/01/04 12:02:16;;;;;;;;;;;24.00;41.00;;;;;;5061093;28;19955;-53
2023/01/04 12:04:42;;;;;;;;;;;24.10;41.00;;;;;;5062257;28;19923;-52
2023/01/04 12:07:30;;;;;;;;;;;24.10;41.00;;;;;;5058087;28;20359;-53
2023/01/04 12:09:59;;;;;;;;;;;24.10;41.10;;;;;;5054258;28;20381;-54
2023/01/04 12:12:28;;;;;;;;;;;24.10;41.00;;;;;;5065309;28;19939;-54
2023/01/04 12:14:54;;;;;;;;;;;24.10;40.90;;;;;;5066635;28;20002;-54
2023/01/04 12:17:22;;;;;;;;;;;24.20;41.00;;;;;;5065332;28;20331;-53
2023/01/04 12:19:49;;;;;;;;;;;24.20;40.90;;;;;;5063182;28;19912;-54
2023/01/04 12:22:35;;;;;;;;;;;24.20;40.90;;;;;;5065495;28;20437;-54
2023/01/04 12:25:01;;;;;;;;;;;24.20;40.80;;;;;;5065899;28;19917;-53
2023/01/04 12:27:26;;;;;;;;;;;24.30;40.90;;;;;;5065359;28;20437;-54
2023/01/04 12:29:53;;;;;;;;;;;24.30;40.80;;;;;;5060845;28;19989;-53
2023/01/04 12:32:18;;;;;;;;;;;24.30;40.80;;;;;;5062556;28;20385;-55
2023/01/04 12:34:44;;;;;;;;;;;24.30;40.80;;;;;;5063148;28;19955;-53
2023/01/04 12:37:11;;;;;;;;;;;24.30;40.80;;;;;;5066903;28;19963;-53
2023/01/04 12:39:40;;;;;;;;;;;24.30;41.00;;;;;;5065016;28;19912;-54
2023/01/04 12:42:05;;;;;;;;;;;24.10;41.10;;;;;;5066201;28;20384;-54
2023/01/04 12:44:33;;;;;;;;;;;24.10;41.20;;;;;;5065068;28;19912;-53
2023/01/04 12:49:50;;;;;;;;;;;24.20;41.30;;;;;;5073110;28;19919;-54
2023/01/04 12:52:17;;;;;;;;;;;24.30;41.20;;;;;;5074320;28;20303;-53
2023/01/04 12:54:46;;;;;;;;;;;24.30;41.10;;;;;;5071418;28;20376;-54
2023/01/04 12:57:14;;;;;;;;;;;24.40;41.00;;;;;;5074100;28;19912;-54
2023/01/04 12:59:55;;;;;;;;;;;24.40;40.90;;;;;;5070434;28;19920;-53
2023/01/04 13:02:20;;;;;;;;;;;24.50;40.90;;;;;;5072804;28;19921;-53
2023/01/04 13:04:46;;;;;;;;;;;24.50;40.80;;;;;;5073615;28;19970;-53
2023/01/04 13:07:18;;;;;;;;;;;24.60;40.90;;;;;;5072007;28;19913;-54
2023/01/04 13:09:47;;;;;;;;;;;24.50;40.80;;;;;;5072769;28;19921;-54
2023/01/04 13:12:32;;;;;;;;;;;24.60;41.00;;;;;;5073213;28;19920;-54
2023/01/04 13:15:01;;;;;;;;;;;24.50;40.80;;;;;;5049133;28;19932;-54
2023/01/04 13:17:26;;;;;;;;;;;24.60;40.90;;;;;;5061348;28;19921;-53
2023/01/04 13:19:52;;;;;;;;;;;24.60;40.90;;;;;;5067386;28;20334;-53
2023/01/04 13:22:19;;;;;;;;;;;24.70;40.90;;;;;;5073051;28;20327;-53
2023/01/04 13:24:44;;;;;;;;;;;24.70;40.80;;;;;;5056912;28;19917;-54
2023/01/04 13:27:28;;;;;;;;;;;24.70;40.90;;;;;;5064571;28;19962;-53
2023/01/04 13:29:53;;;;;;;;;;;24.70;40.90;;;;;;5076992;28;20376;-53
2023/01/04 13:32:19;;;;;;;;;;;24.70;40.80;;;;;;5068149;28;19974;-54
2023/01/04 13:34:54;;;;;;;;;;;24.70;40.80;;;;;;5070483;28;19916;-53
2023/01/04 13:37:25;;;;;;;;;;;24.70;40.80;;;;;;5071453;28;19927;-54
2023/01/04 13:40:09;;;;;;;;;;;24.70;40.80;;;;;;5071980;28;19912;-53
2023/01/04 13:42:35;;;;;;;;;;;24.80;40.80;;;;;;5067190;28;20001;-55
2023/01/04 13:45:19;;;;;;;;;;;24.80;40.80;;;;;;5071038;28;19948;-53
2023/01/04 13:47:44;;;;;;;;;;;24.80;40.80;;;;;;5071286;28;19923;-54
2023/01/04 13:50:25;;;;;;;;;;;24.80;40.80;;;;;;5072851;28;19916;-54
2023/01/04 13:52:50;;;;;;;;;;;24.80;40.80;;;;;;5071104;28;19913;-54
2023/01/04 13:55:20;;;;;;;;;;;24.90;40.80;;;;;;5071280;28;19920;-54
2023/01/04 13:57:57;;;;;;;;;;;24.90;40.80;;;;;;5066529;28;19912;-54
2023/01/04 14:00:23;;;;;;;;;;;24.90;40.90;;;;;;5066694;28;20387;-53
2023/01/04 14:03:03;;;;;;;;;;;24.80;40.90;;;;;;5099228;28;19916;-54
2023/01/04 14:05:29;;;;;;;;;;;24.90;41.00;;;;;;5070308;28;20292;-53
2023/01/04 14:07:54;;;;;;;;;;;24.90;41.00;;;;;;5072586;28;19912;-54
2023/01/04 14:10:20;;;;;;;;;;;24.90;40.90;;;;;;5069842;28;19935;-54
2023/01/04 14:12:45;;;;;;;;;;;24.90;40.90;;;;;;5071189;28;19909;-52
2023/01/04 14:15:17;;;;;;;;;;;24.90;40.90;;;;;;5065663;28;19913;-54
2023/01/04 14:17:45;;;;;;;;;;;24.90;40.80;;;;;;5062639;28;20396;-53
2023/01/04 14:20:11;;;;;;;;;;;24.90;40.80;;;;;;5064008;28;19912;-54
2023/01/04 14:22:40;;;;;;;;;;;24.90;40.80;;;;;;5071842;28;19982;-53
2023/01/04 14:25:24;;;;;;;;;;;25.00;40.80;;;;;;5058246;28;20044;-54
2023/01/04 14:27:51;;;;;;;;;;;25.00;40.90;;;;;;5059634;28;19920;-54
2023/01/04 14:30:16;;;;;;;;;;;25.00;40.90;;;;;;5068145;28;19912;-53
2023/01/04 14:32:51;;;;;;;;;;;25.00;40.80;;;;;;5059559;28;19912;-53
2023/01/04 14:35:16;;;;;;;;;;;25.10;41.00;;;;;;5060704;28;19916;-54
2023/01/04 14:37:42;;;;;;;;;;;25.10;40.80;;;;;;5067427;28;19927;-54
2023/01/04 14:40:21;;;;;;;;;;;25.10;40.90;;;;;;5065565;28;19999;-54
2023/01/04 14:42:46;;;;;;;;;;;25.10;40.90;;;;;;5067938;28;19912;-54
2023/01/04 14:45:12;;;;;;;;;;;25.10;40.90;;;;;;5068617;28;20395;-55
2023/01/04 14:47:38;;;;;;;;;;;25.10;40.90;;;;;;5066110;28;20272;-54
2023/01/04 14:50:03;;;;;;;;;;;25.10;40.90;;;;;;5067170;28;20279;-54
2023/01/04 14:52:29;;;;;;;;;;;25.20;40.90;;;;;;5065658;28;19916;-52
2023/01/04 14:54:55;;;;;;;;;;;25.20;40.90;;;;;;5069852;28;19970;-54
2023/01/04 14:57:20;;;;;;;;;;;25.10;40.80;;;;;;5068417;28;20387;-55
2023/01/04 14:59:46;;;;;;;;;;;25.20;40.90;;;;;;5070813;28;19920;-54
2023/01/04 15:02:12;;;;;;;;;;;25.20;40.90;;;;;;5064285;28;19916;-55
2023/01/04 15:04:37;;;;;;;;;;;25.20;40.80;;;;;;5065976;28;19913;-54
2023/01/04 15:07:03;;;;;;;;;;;25.30;40.90;;;;;;5067310;28;19981;-54